createdAt,value
2018-03-28T00:01:03.057Z,-46
2018-03-28T00:03:28.836Z,-47
2018-03-28T00:05:54.591Z,-46
2018-03-28T00:08:21.040Z,-45
2018-03-28T00:10:46.801Z,-46
2018-03-28T00:13:12.585Z,-46
2018-03-28T00:15:38.342Z,-45
2018-03-28T00:18:04.109Z,-46
2018-03-28T00:20:29.862Z,-46
2018-03-28T00:22:56.201Z,-46
2018-03-28T00:25:21.977Z,-46
2018-03-28T00:27:47.728Z,-46
2018-03-28T00:30:13.470Z,-46
2018-03-28T00:32:39.260Z,-47
2018-03-28T00:35:05.008Z,-46
2018-03-28T00:37:30.776Z,-46
2018-03-28T00:39:56.558Z,-46
2018-03-28T00:42:22.365Z,-45
2018-03-28T00:44:48.077Z,-46
2018-03-28T00:47:13.870Z,-46
2018-03-28T00:49:39.617Z,-47
2018-03-28T00:52:05.821Z,-47
2018-03-28T00:54:31.592Z,-46
2018-03-28T00:56:57.342Z,-46
2018-03-28T00:59:23.094Z,-46
2018-03-28T01:01:48.976Z,-46
2018-03-28T01:04:14.717Z,-46
2018-03-28T01:06:40.449Z,-46
2018-03-28T01:09:06.767Z,-46
2018-03-28T01:11:32.513Z,-46
2018-03-28T01:13:58.260Z,-46
2018-03-28T01:16:24.016Z,-46
2018-03-28T01:18:49.770Z,-46
2018-03-28T01:21:15.553Z,-46
2018-03-28T01:23:41.325Z,-46
2018-03-28T01:26:07.388Z,-46
2018-03-28T01:28:33.133Z,-46
2018-03-28T01:30:58.909Z,-46
2018-03-28T01:33:24.648Z,-46
2018-03-28T01:35:50.417Z,-46
2018-03-28T01:38:16.188Z,-46
2018-03-28T01:40:41.937Z,-46
2018-03-28T01:43:07.708Z,-46
2018-03-28T01:45:33.472Z,-46
2018-03-28T01:47:59.237Z,-46
2018-03-28T01:50:24.991Z,-46
2018-03-28T01:52:51.156Z,-46
2018-03-28T01:55:16.936Z,-46
2018-03-28T01:57:42.688Z,-47
2018-03-28T02:00:08.489Z,-46
2018-03-28T02:02:34.233Z,-46
2018-03-28T02:04:59.983Z,-46
2018-03-28T02:07:25.745Z,-46
2018-03-28T02:09:51.553Z,-46
2018-03-28T02:12:17.308Z,-46
2018-03-28T02:14:43.101Z,-46
2018-03-28T02:17:08.870Z,-46
2018-03-28T02:19:34.614Z,-46
2018-03-28T02:22:00.372Z,-46
2018-03-28T02:24:26.311Z,-46
2018-03-28T02:26:52.061Z,-46
2018-03-28T02:29:17.846Z,-46
2018-03-28T02:31:43.599Z,-46
2018-03-28T02:34:09.354Z,-46
2018-03-28T02:36:35.180Z,-46
2018-03-28T02:39:00.917Z,-46
2018-03-28T02:41:26.664Z,-46
2018-03-28T02:43:52.458Z,-46
2018-03-28T02:46:18.205Z,-47
2018-03-28T02:48:44.432Z,-46
2018-03-28T02:51:10.238Z,-46
2018-03-28T02:53:36.018Z,-46
2018-03-28T02:56:01.774Z,-46
2018-03-28T02:58:27.558Z,-46
2018-03-28T03:00:53.314Z,-46
2018-03-28T03:03:19.061Z,-46
2018-03-28T03:05:45.269Z,-46
2018-03-28T03:08:11.022Z,-47
2018-03-28T03:10:36.793Z,-45
2018-03-28T03:13:02.593Z,-46
2018-03-28T03:15:28.361Z,-46
2018-03-28T03:17:54.130Z,-46
2018-03-28T03:20:19.903Z,-46
2018-03-28T03:22:46.064Z,-46
2018-03-28T03:25:11.827Z,-46
2018-03-28T03:27:37.601Z,-46
2018-03-28T03:30:03.354Z,-46
2018-03-28T03:32:29.114Z,-46
2018-03-28T03:34:54.872Z,-46
2018-03-28T03:37:20.621Z,-46
2018-03-28T03:39:46.402Z,-46
2018-03-28T03:42:12.161Z,-46
2018-03-28T03:44:37.937Z,-46
2018-03-28T03:47:03.722Z,-46
2018-03-28T03:49:29.829Z,-46
2018-03-28T03:51:55.597Z,-46
2018-03-28T03:54:21.362Z,-46
2018-03-28T03:56:47.110Z,-46
2018-03-28T03:59:12.861Z,-46
2018-03-28T04:01:38.630Z,-46
2018-03-28T04:04:04.412Z,-45
2018-03-28T04:06:30.497Z,-46
2018-03-28T04:08:56.321Z,-46
2018-03-28T04:11:22.071Z,-45
2018-03-28T04:13:47.817Z,-46
2018-03-28T04:16:13.604Z,-46
2018-03-28T04:18:39.349Z,-46
2018-03-28T04:21:05.085Z,-46
2018-03-28T04:23:30.838Z,-46
2018-03-28T04:25:56.593Z,-46
2018-03-28T04:28:22.880Z,-46
2018-03-28T04:30:48.653Z,-46
2018-03-28T04:33:14.384Z,-45
2018-03-28T04:35:40.129Z,-46
2018-03-28T04:38:05.899Z,-46
2018-03-28T04:40:31.641Z,-46
2018-03-28T04:42:57.377Z,-46
2018-03-28T04:45:23.141Z,-46
2018-03-28T04:47:48.892Z,-45
2018-03-28T04:50:14.624Z,-46
2018-03-28T04:52:40.372Z,-46
2018-03-28T04:55:06.570Z,-46
2018-03-28T04:57:32.325Z,-46
2018-03-28T04:59:58.089Z,-46
2018-03-28T05:02:23.833Z,-46
2018-03-28T05:04:49.588Z,-46
2018-03-28T05:07:15.375Z,-46
2018-03-28T05:09:41.124Z,-46
2018-03-28T05:12:06.881Z,-46
2018-03-28T05:14:32.660Z,-45
2018-03-28T05:16:58.406Z,-46
2018-03-28T05:19:24.160Z,-45
2018-03-28T05:21:49.921Z,-45
2018-03-28T05:24:15.704Z,-45
2018-03-28T05:26:41.797Z,-48
2018-03-28T05:29:07.581Z,-45
2018-03-28T05:31:33.319Z,-46
2018-03-28T05:33:59.084Z,-45
2018-03-28T05:36:41.145Z,-47
2018-03-28T05:39:08.808Z,-46
2018-03-28T05:41:34.565Z,-46
2018-03-28T05:44:00.337Z,-46
2018-03-28T05:46:26.093Z,-46
2018-03-28T05:48:51.885Z,-44
2018-03-28T05:51:17.627Z,-44
2018-03-28T05:53:43.382Z,-44
2018-03-28T05:56:09.174Z,-44
2018-03-28T05:58:35.304Z,-44
2018-03-28T06:01:01.095Z,-44
2018-03-28T06:03:26.853Z,-45
2018-03-28T06:05:52.602Z,-45
2018-03-28T06:08:18.406Z,-44
2018-03-28T06:10:44.193Z,-45
2018-03-28T06:13:09.962Z,-45
2018-03-28T06:15:35.733Z,-44
2018-03-28T06:18:01.536Z,-45
2018-03-28T06:20:27.295Z,-45
2018-03-28T06:22:53.065Z,-45
2018-03-28T06:25:19.274Z,-45
2018-03-28T06:27:45.055Z,-45
2018-03-28T06:30:10.811Z,-45
2018-03-28T06:32:36.589Z,-46
2018-03-28T06:35:02.334Z,-45
2018-03-28T06:37:28.109Z,-47
2018-03-28T06:39:53.885Z,-45
2018-03-28T06:42:19.640Z,-45
2018-03-28T06:44:45.397Z,-45
2018-03-28T06:47:11.174Z,-45
2018-03-28T06:49:36.912Z,-46
2018-03-28T06:52:02.686Z,-45
2018-03-28T06:54:28.801Z,-46
2018-03-28T06:56:54.608Z,-46
2018-03-28T06:59:20.354Z,-46
2018-03-28T07:01:46.138Z,-46
2018-03-28T07:04:11.894Z,-46
2018-03-28T07:06:37.653Z,-45
2018-03-28T07:09:03.418Z,-46
2018-03-28T07:11:29.194Z,-46
2018-03-28T07:13:54.989Z,-46
2018-03-28T07:16:20.746Z,-46
2018-03-28T07:18:46.514Z,-46
2018-03-28T07:21:12.281Z,-50
2018-03-28T07:23:38.506Z,-46
2018-03-28T07:26:04.268Z,-46
2018-03-28T07:28:30.027Z,-46
2018-03-28T07:30:55.777Z,-46
2018-03-28T07:33:21.553Z,-47
2018-03-28T07:35:47.317Z,-48
2018-03-28T07:38:13.069Z,-47
2018-03-28T07:40:38.830Z,-46
2018-03-28T07:43:04.597Z,-46
2018-03-28T07:45:30.340Z,-46
2018-03-28T07:47:56.131Z,-46
2018-03-28T07:50:22.229Z,-46
2018-03-28T07:52:47.974Z,-46
2018-03-28T07:55:13.748Z,-46
2018-03-28T07:57:39.521Z,-47
2018-03-28T08:00:05.269Z,-47
2018-03-28T08:02:31.009Z,-47
2018-03-28T08:04:56.776Z,-46
2018-03-28T08:07:22.520Z,-47
2018-03-28T08:09:48.276Z,-47
2018-03-28T08:12:14.044Z,-47
2018-03-28T08:14:39.796Z,-47
2018-03-28T08:17:05.526Z,-47
2018-03-28T08:19:31.281Z,-47
2018-03-28T08:21:57.024Z,-47
2018-03-28T08:24:23.074Z,-47
2018-03-28T08:26:48.848Z,-47
2018-03-28T08:29:14.601Z,-47
2018-03-28T08:31:40.342Z,-47
2018-03-28T08:34:06.153Z,-47
2018-03-28T08:36:31.900Z,-47
2018-03-28T08:38:57.673Z,-47
2018-03-28T08:41:23.444Z,-47
2018-03-28T08:43:49.193Z,-47
2018-03-28T08:46:14.949Z,-47
2018-03-28T08:48:40.725Z,-47
2018-03-28T08:51:06.825Z,-47
2018-03-28T08:53:32.570Z,-47
2018-03-28T08:55:58.455Z,-47
2018-03-28T08:58:24.237Z,-47
2018-03-28T09:00:50.002Z,-47
2018-03-28T09:03:15.809Z,-47
2018-03-28T09:05:41.577Z,-47
2018-03-28T09:08:07.361Z,-47
2018-03-28T09:10:33.129Z,-47
2018-03-28T09:12:58.898Z,-47
2018-03-28T09:15:24.641Z,-46
2018-03-28T09:17:50.429Z,-47
2018-03-28T09:20:16.177Z,-47
2018-03-28T09:22:42.267Z,-46
2018-03-28T09:25:08.041Z,-46
2018-03-28T09:27:33.800Z,-47
2018-03-28T09:29:59.550Z,-47
2018-03-28T09:32:25.333Z,-47
2018-03-28T09:34:51.111Z,-48
2018-03-28T09:37:16.829Z,-47
2018-03-28T09:39:42.857Z,-47
2018-03-28T09:42:08.615Z,-46
2018-03-28T09:44:34.368Z,-47
2018-03-28T09:47:00.135Z,-47
2018-03-28T09:49:25.912Z,-47
2018-03-28T09:51:51.660Z,-47
2018-03-28T09:54:17.434Z,-47
2018-03-28T09:56:43.459Z,-47
2018-03-28T09:59:09.216Z,-47
2018-03-28T10:01:34.988Z,-47
2018-03-28T10:04:06.863Z,-47
2018-03-28T10:06:32.627Z,-47
2018-03-28T10:08:58.369Z,-47
2018-03-28T10:11:24.121Z,-47
2018-03-28T10:13:49.913Z,-47
2018-03-28T10:16:15.654Z,-47
2018-03-28T10:18:41.384Z,-47
2018-03-28T10:21:07.146Z,-47
2018-03-28T10:23:32.905Z,-47
2018-03-28T10:25:59.033Z,-47
2018-03-28T10:28:24.809Z,-47
2018-03-28T10:30:50.558Z,-46
2018-03-28T10:33:16.310Z,-47
2018-03-28T10:35:42.074Z,-48
2018-03-28T10:38:07.820Z,-47
2018-03-28T10:40:33.569Z,-48
2018-03-28T10:42:59.569Z,-47
2018-03-28T10:45:25.314Z,-47
2018-03-28T10:47:51.068Z,-47
2018-03-28T10:50:16.837Z,-47
2018-03-28T10:52:42.593Z,-47
2018-03-28T10:55:08.328Z,-47
2018-03-28T10:57:34.089Z,-47
2018-03-28T10:59:59.822Z,-47
2018-03-28T11:02:25.829Z,-47
2018-03-28T11:04:51.597Z,-47
2018-03-28T11:07:17.350Z,-47
2018-03-28T11:09:43.094Z,-47
2018-03-28T11:12:08.861Z,-47
2018-03-28T11:14:34.612Z,-47
2018-03-28T11:17:00.373Z,-47
2018-03-28T11:19:26.135Z,-47
2018-03-28T11:21:51.922Z,-47
2018-03-28T11:24:17.715Z,-47
2018-03-28T11:26:43.475Z,-47
2018-03-28T11:29:09.225Z,-47
2018-03-28T11:31:35.309Z,-47
2018-03-28T11:34:01.073Z,-47
2018-03-28T11:36:26.837Z,-47
2018-03-28T11:38:52.604Z,-47
2018-03-28T11:41:18.648Z,-48
2018-03-28T11:43:44.449Z,-48
2018-03-28T11:46:10.237Z,-46
2018-03-28T11:48:35.981Z,-48
2018-03-28T11:51:01.741Z,-48
2018-03-28T11:53:29.739Z,-47
2018-03-28T11:55:55.935Z,-49
2018-03-28T11:58:21.906Z,-47
2018-03-28T12:00:47.661Z,-48
2018-03-28T12:03:13.409Z,-46
2018-03-28T12:05:39.185Z,-46
2018-03-28T12:08:04.938Z,-46
2018-03-28T12:10:30.715Z,-46
2018-03-28T12:12:56.490Z,-46
2018-03-28T12:15:22.228Z,-47
2018-03-28T12:17:47.967Z,-47
2018-03-28T12:20:13.897Z,-47
2018-03-28T12:22:39.649Z,-47
2018-03-28T12:25:05.938Z,-47
2018-03-28T12:27:31.701Z,-47
2018-03-28T12:29:57.464Z,-47
2018-03-28T12:32:23.241Z,-46
2018-03-28T12:34:48.996Z,-47
2018-03-28T12:37:14.741Z,-47
2018-03-28T12:39:40.493Z,-46
2018-03-28T12:42:06.332Z,-46
2018-03-28T12:44:32.012Z,-46
2018-03-28T12:46:57.763Z,-46
2018-03-28T12:49:23.543Z,-46
2018-03-28T12:51:49.301Z,-46
2018-03-28T12:54:15.599Z,-48
2018-03-28T12:56:41.369Z,-47
2018-03-28T12:59:07.114Z,-47
2018-03-28T13:01:32.890Z,-47
2018-03-28T13:03:58.673Z,-47
2018-03-28T13:06:24.432Z,-47
2018-03-28T13:08:50.171Z,-47
2018-03-28T13:11:16.141Z,-47
2018-03-28T13:13:41.893Z,-47
2018-03-28T13:16:07.645Z,-47
2018-03-28T13:18:33.405Z,-47
2018-03-28T13:20:59.157Z,-47
2018-03-28T13:23:24.895Z,-47
2018-03-28T13:25:50.681Z,-47
2018-03-28T13:28:16.865Z,-47
2018-03-28T13:30:42.612Z,-47
2018-03-28T13:33:08.377Z,-47
2018-03-28T13:35:34.129Z,-47
2018-03-28T13:37:59.879Z,-47
2018-03-28T13:40:25.656Z,-47
2018-03-28T13:42:51.448Z,-49
2018-03-28T13:45:17.306Z,-48
2018-03-28T13:47:43.056Z,-47
2018-03-28T13:50:08.797Z,-46
2018-03-28T13:52:34.557Z,-47
2018-03-28T13:55:00.571Z,-47
2018-03-28T13:57:26.325Z,-47
2018-03-28T13:59:52.078Z,-47
2018-03-28T14:02:17.819Z,-47
2018-03-28T14:04:43.577Z,-47
2018-03-28T14:07:09.353Z,-47
2018-03-28T14:09:35.097Z,-47
2018-03-28T14:12:00.832Z,-47
2018-03-28T14:14:26.584Z,-47
2018-03-28T14:16:52.332Z,-47
2018-03-28T14:19:18.084Z,-47
2018-03-28T14:21:43.884Z,-47
2018-03-28T14:24:09.626Z,-47
2018-03-28T14:26:35.710Z,-47
2018-03-28T14:29:01.481Z,-46
2018-03-28T14:31:27.245Z,-47
2018-03-28T14:33:53.002Z,-48
2018-03-28T14:36:18.821Z,-48
2018-03-28T14:38:44.557Z,-47
2018-03-28T14:41:10.307Z,-46
2018-03-28T14:43:36.069Z,-46
2018-03-28T14:46:01.865Z,-46
2018-03-28T14:48:27.657Z,-46
2018-03-28T14:50:53.401Z,-46
2018-03-28T14:53:19.146Z,-47
2018-03-28T14:55:44.940Z,-47
2018-03-28T14:58:11.040Z,-46
2018-03-28T15:00:36.788Z,-47
2018-03-28T15:03:02.561Z,-45
2018-03-28T15:05:28.309Z,-44
2018-03-28T15:07:54.069Z,-44
2018-03-28T15:10:19.837Z,-43
2018-03-28T15:12:45.598Z,-47
2018-03-28T15:15:11.359Z,-44
2018-03-28T15:17:37.105Z,-43
2018-03-28T15:20:02.865Z,-42
2018-03-28T15:22:28.660Z,-44
2018-03-28T15:24:54.864Z,-44
2018-03-28T15:27:20.633Z,-44
2018-03-28T15:29:46.395Z,-44
2018-03-28T15:32:12.148Z,-44
2018-03-28T15:34:37.908Z,-43
2018-03-28T15:37:03.688Z,-44
2018-03-28T15:39:29.467Z,-43
2018-03-28T15:41:55.461Z,-44
2018-03-28T15:44:21.224Z,-44
2018-03-28T15:46:46.980Z,-44
2018-03-28T15:49:12.745Z,-43
2018-03-28T15:51:38.497Z,-43
2018-03-28T15:54:04.261Z,-43
2018-03-28T15:56:30.041Z,-44
2018-03-28T15:58:55.777Z,-44
2018-03-28T16:01:22.043Z,-44
2018-03-28T16:03:47.827Z,-44
2018-03-28T16:06:13.580Z,-44
2018-03-28T16:08:39.346Z,-44
2018-03-28T16:11:05.112Z,-44
2018-03-28T16:13:30.871Z,-44
2018-03-28T16:15:56.652Z,-44
2018-03-28T16:18:22.403Z,-44
2018-03-28T16:20:48.142Z,-44
2018-03-28T16:23:13.916Z,-44
2018-03-28T16:25:40.009Z,-44
2018-03-28T16:28:05.764Z,-44
2018-03-28T16:30:31.544Z,-43
2018-03-28T16:32:57.314Z,-43
2018-03-28T16:35:23.060Z,-44
2018-03-28T16:37:48.837Z,-44
2018-03-28T16:40:14.605Z,-43
2018-03-28T16:42:40.619Z,-44
2018-03-28T16:45:06.391Z,-43
2018-03-28T16:47:32.200Z,-43
2018-03-28T16:49:57.926Z,-46
2018-03-28T16:52:23.705Z,-47
2018-03-28T16:54:49.467Z,-46
2018-03-28T16:57:15.248Z,-47
2018-03-28T16:59:40.996Z,-46
2018-03-28T17:02:07.085Z,-46
2018-03-28T17:04:32.897Z,-46
2018-03-28T17:06:58.707Z,-46
2018-03-28T17:09:24.466Z,-46
2018-03-28T17:11:50.229Z,-46
2018-03-28T17:14:15.989Z,-46
2018-03-28T17:16:41.760Z,-46
2018-03-28T17:19:07.553Z,-46
2018-03-28T17:21:33.321Z,-46
2018-03-28T17:23:59.073Z,-46
2018-03-28T17:26:24.863Z,-46
2018-03-28T17:28:50.609Z,-46
2018-03-28T17:31:16.625Z,-46
2018-03-28T17:33:42.390Z,-46
2018-03-28T17:36:08.176Z,-47
2018-03-28T17:38:40.124Z,-46
2018-03-28T17:41:05.865Z,-46
2018-03-28T17:43:31.632Z,-47
2018-03-28T17:45:57.421Z,-48
2018-03-28T17:48:23.169Z,-47
2018-03-28T17:50:48.929Z,-47
2018-03-28T17:53:14.689Z,-47
2018-03-28T17:55:40.437Z,-47
2018-03-28T17:58:06.577Z,-46
2018-03-28T18:00:32.352Z,-46
2018-03-28T18:02:58.100Z,-46
2018-03-28T18:05:23.857Z,-47
2018-03-28T18:07:49.621Z,-48
2018-03-28T18:10:15.381Z,-47
2018-03-28T18:12:41.137Z,-47
2018-03-28T18:15:06.916Z,-47
2018-03-28T18:17:32.681Z,-47
2018-03-28T18:19:58.424Z,-47
2018-03-28T18:22:24.204Z,-47
2018-03-28T18:24:50.471Z,-48
2018-03-28T18:27:16.237Z,-47
2018-03-28T18:29:41.996Z,-47
2018-03-28T18:32:07.761Z,-47
2018-03-28T18:34:33.533Z,-47
2018-03-28T18:36:59.300Z,-47
2018-03-28T18:39:25.049Z,-48
2018-03-28T18:41:50.837Z,-47
2018-03-28T18:44:16.601Z,-47
2018-03-28T18:46:42.396Z,-47
2018-03-28T18:49:08.165Z,-47
2018-03-28T18:51:33.946Z,-47
2018-03-28T18:53:59.760Z,-47
2018-03-28T18:56:25.913Z,-47
2018-03-28T18:58:51.668Z,-47
2018-03-28T19:01:17.442Z,-51
2018-03-28T19:03:43.217Z,-47
2018-03-28T19:06:08.987Z,-47
2018-03-28T19:08:34.749Z,-47
2018-03-28T19:11:00.533Z,-47
2018-03-28T19:13:26.281Z,-47
2018-03-28T19:15:52.091Z,-47
2018-03-28T19:18:17.916Z,-48
2018-03-28T19:20:43.721Z,-47
2018-03-28T19:23:09.480Z,-47
2018-03-28T19:25:35.846Z,-47
2018-03-28T19:28:01.606Z,-47
2018-03-28T19:30:27.425Z,-47
2018-03-28T19:32:53.189Z,-47
2018-03-28T19:35:18.962Z,-47
2018-03-28T19:37:44.709Z,-47
2018-03-28T19:40:10.480Z,-47
2018-03-28T19:42:36.232Z,-47
2018-03-28T19:45:02.001Z,-47
2018-03-28T19:47:27.772Z,-47
2018-03-28T19:49:53.525Z,-47
2018-03-28T19:52:19.745Z,-47
2018-03-28T19:54:45.514Z,-47
2018-03-28T19:57:11.265Z,-47
2018-03-28T19:59:37.009Z,-47
2018-03-28T20:02:02.786Z,-47
2018-03-28T20:04:28.533Z,-47
2018-03-28T20:06:54.294Z,-48
2018-03-28T20:09:20.054Z,-46
2018-03-28T20:11:45.792Z,-47
2018-03-28T20:14:11.546Z,-47
2018-03-28T20:16:37.317Z,-47
2018-03-28T20:19:03.538Z,-47
2018-03-28T20:21:29.309Z,-47
2018-03-28T20:23:55.069Z,-47
2018-03-28T20:26:20.805Z,-47
2018-03-28T20:28:46.567Z,-47
2018-03-28T20:31:12.326Z,-47
2018-03-28T20:33:38.074Z,-46
2018-03-28T20:36:03.845Z,-46
2018-03-28T20:38:29.614Z,-47
2018-03-28T20:40:55.363Z,-47
2018-03-28T20:43:21.135Z,-47
2018-03-28T20:45:46.914Z,-47
2018-03-28T20:48:12.646Z,-47
2018-03-28T20:50:38.869Z,-47
2018-03-28T20:53:04.625Z,-47
2018-03-28T20:55:30.370Z,-48
2018-03-28T20:57:56.120Z,-47
2018-03-28T21:00:21.877Z,-47
2018-03-28T21:02:47.622Z,-48
2018-03-28T21:05:13.381Z,-47
2018-03-28T21:07:43.015Z,-47
2018-03-28T21:10:08.777Z,-47
2018-03-28T21:12:34.545Z,-47
2018-03-28T21:15:00.315Z,-47
2018-03-28T21:17:26.468Z,-47
2018-03-28T21:19:52.227Z,-47
2018-03-28T21:22:18.033Z,-47
2018-03-28T21:24:43.745Z,-47
2018-03-28T21:27:09.519Z,-47
2018-03-28T21:29:35.286Z,-47
2018-03-28T21:32:01.049Z,-47
2018-03-28T21:34:27.409Z,-47
2018-03-28T21:36:53.179Z,-47
2018-03-28T21:39:18.936Z,-48
2018-03-28T21:41:44.698Z,-47
2018-03-28T21:44:10.472Z,-47
2018-03-28T21:46:36.229Z,-47
2018-03-28T21:49:01.990Z,-47
2018-03-28T21:51:27.761Z,-48
2018-03-28T21:53:54.006Z,-48
2018-03-28T21:56:19.772Z,-47
2018-03-28T21:58:45.552Z,-47
2018-03-28T22:01:11.308Z,-48
2018-03-28T22:03:37.072Z,-48
2018-03-28T22:06:02.850Z,-47
2018-03-28T22:08:28.588Z,-47
2018-03-28T22:10:54.347Z,-48
2018-03-28T22:13:20.101Z,-48
2018-03-28T22:15:45.870Z,-47
2018-03-28T22:18:11.664Z,-47
2018-03-28T22:20:37.410Z,-48
2018-03-28T22:23:03.417Z,-48
2018-03-28T22:25:29.173Z,-48
2018-03-28T22:27:55.771Z,-48
2018-03-28T22:30:21.552Z,-48
2018-03-28T22:32:47.299Z,-47
2018-03-28T22:35:13.055Z,-47
2018-03-28T22:37:38.813Z,-47
2018-03-28T22:40:04.761Z,-47
2018-03-28T22:42:30.505Z,-48
2018-03-28T22:44:56.283Z,-47
2018-03-28T22:47:22.050Z,-48
2018-03-28T22:49:47.799Z,-47
2018-03-28T22:52:13.590Z,-47
2018-03-28T22:54:39.346Z,-47
2018-03-28T22:57:05.101Z,-47
2018-03-28T22:59:31.257Z,-47
2018-03-28T23:01:57.013Z,-47
2018-03-28T23:04:22.761Z,-48
2018-03-28T23:06:48.535Z,-47
2018-03-28T23:09:14.287Z,-47
2018-03-28T23:11:40.057Z,-47
2018-03-28T23:14:05.828Z,-47
2018-03-28T23:16:31.661Z,-47
2018-03-28T23:18:57.425Z,-47
2018-03-28T23:21:23.189Z,-47
2018-03-28T23:23:48.937Z,-47
2018-03-28T23:26:14.713Z,-47
2018-03-28T23:28:40.491Z,-48
2018-03-28T23:31:13.481Z,-48
2018-03-28T23:33:39.252Z,-47
2018-03-28T23:36:04.997Z,-47
2018-03-28T23:38:30.754Z,-47
2018-03-28T23:40:56.532Z,-47
2018-03-28T23:43:22.283Z,-47
2018-03-28T23:45:48.058Z,-47
2018-03-28T23:48:13.806Z,-47
2018-03-28T23:50:39.565Z,-47
2018-03-28T23:53:05.341Z,-47
2018-03-28T23:55:31.245Z,-47
2018-03-28T23:57:56.993Z,-47
